createdAt,value
2022-11-08T00:01:35.562Z,10.10
2022-11-08T00:06:40.499Z,10.10
2022-11-08T00:12:01.854Z,10.00
2022-11-08T00:16:48.112Z,10.00
2022-11-08T00:21:36.200Z,10.00
2022-11-08T00:26:42.673Z,10.00
2022-11-08T00:31:59.596Z,10.00
2022-11-08T00:36:49.633Z,9.80
2022-11-08T00:41:35.423Z,9.80
2022-11-08T00:46:25.993Z,9.70
2022-11-08T00:51:13.885Z,9.70
2022-11-08T00:56:13.504Z,9.90
2022-11-08T01:01:51.189Z,9.90
2022-11-08T01:06:45.991Z,9.90
2022-11-08T01:11:46.580Z,9.80
2022-11-08T01:16:32.371Z,9.90
2022-11-08T01:21:20.058Z,9.80
2022-11-08T01:26:22.543Z,9.70
2022-11-08T01:31:46.476Z,9.60
2022-11-08T01:36:49.300Z,9.50
2022-11-08T01:42:07.842Z,9.50
2022-11-08T01:47:08.474Z,9.40
2022-11-08T01:52:19.729Z,9.40
2022-11-08T01:57:09.444Z,9.30
2022-11-08T02:01:57.963Z,9.30
2022-11-08T02:07:12.765Z,9.10
2022-11-08T02:12:01.017Z,9.10
2022-11-08T02:17:20.515Z,9.10
2022-11-08T02:27:30.492Z,9.20
2022-11-08T02:32:21.093Z,9.20
2022-11-08T02:37:19.527Z,9.10
2022-11-08T02:42:43.645Z,9.00
2022-11-08T02:47:43.669Z,9.00
2022-11-08T02:52:30.559Z,9.00
2022-11-08T02:57:40.961Z,9.00
2022-11-08T03:02:39.866Z,8.80
2022-11-08T03:07:27.730Z,8.70
2022-11-08T03:12:14.720Z,8.60
2022-11-08T03:17:09.444Z,8.50
2022-11-08T03:21:53.197Z,8.70
2022-11-08T03:26:42.045Z,8.70
2022-11-08T03:31:33.361Z,8.70
2022-11-08T03:36:30.160Z,8.70
2022-11-08T03:41:57.214Z,8.90
2022-11-08T03:46:41.144Z,9.00
2022-11-08T03:51:29.452Z,9.10
2022-11-08T03:56:15.073Z,9.00
2022-11-08T04:01:05.524Z,9.00
2022-11-08T04:05:52.156Z,9.10
2022-11-08T04:10:41.261Z,9.10
2022-11-08T04:15:26.826Z,9.00
2022-11-08T04:20:52.935Z,8.90
2022-11-08T04:25:36.846Z,8.70
2022-11-08T04:30:24.736Z,8.30
2022-11-08T04:35:12.143Z,8.00
2022-11-08T04:40:01.342Z,7.70
2022-11-08T04:44:49.929Z,7.50
2022-11-08T04:49:39.746Z,7.40
2022-11-08T04:54:24.692Z,7.60
2022-11-08T04:59:12.308Z,7.80
2022-11-08T05:03:59.937Z,7.90
2022-11-08T05:09:18.393Z,7.80
2022-11-08T05:14:08.970Z,7.70
2022-11-08T05:18:58.395Z,7.40
2022-11-08T05:23:44.513Z,7.20
2022-11-08T05:28:36.105Z,7.20
2022-11-08T05:33:35.172Z,7.10
2022-11-08T05:38:27.774Z,7.10
2022-11-08T05:43:11.984Z,7.20
2022-11-08T05:48:03.918Z,7.10
2022-11-08T05:52:47.801Z,6.90
2022-11-08T05:57:34.596Z,6.90
2022-11-08T06:02:27.446Z,6.90
2022-11-08T06:07:12.708Z,6.90
2022-11-08T06:12:00.781Z,6.80
2022-11-08T06:16:48.745Z,6.90
2022-11-08T06:21:36.994Z,6.90
2022-11-08T06:26:25.985Z,7.30
2022-11-08T06:31:10.865Z,7.50
2022-11-08T06:36:01.127Z,7.40
2022-11-08T06:40:47.889Z,7.40
2022-11-08T06:45:37.784Z,7.40
2022-11-08T06:50:24.859Z,7.70
2022-11-08T06:55:12.957Z,7.80
2022-11-08T07:00:00.889Z,8.00
2022-11-08T07:04:49.309Z,8.10
2022-11-08T07:09:37.014Z,8.40
2022-11-08T07:14:23.871Z,8.40
2022-11-08T07:19:11.012Z,8.60
2022-11-08T07:24:03.917Z,8.80
2022-11-08T07:28:47.595Z,8.90
2022-11-08T07:33:35.270Z,8.90
2022-11-08T07:38:25.269Z,9.10
2022-11-08T07:43:13.326Z,9.20
2022-11-08T07:48:04.307Z,9.50
2022-11-08T07:53:06.126Z,9.80
2022-11-08T07:57:56.946Z,10.10
2022-11-08T08:02:42.538Z,10.30
2022-11-08T08:07:27.494Z,10.50
2022-11-08T08:12:14.592Z,10.70
2022-11-08T08:17:23.534Z,11.00
2022-11-08T08:22:08.954Z,11.30
2022-11-08T08:26:56.259Z,11.70
2022-11-08T08:31:43.510Z,11.90
2022-11-08T08:36:36.380Z,12.20
2022-11-08T08:41:21.452Z,12.50
2022-11-08T08:46:08.415Z,12.90
2022-11-08T08:50:55.299Z,13.20
2022-11-08T08:55:43.380Z,13.30
2022-11-08T09:06:02.628Z,13.60
2022-11-08T09:10:56.488Z,13.70
2022-11-08T09:15:44.023Z,13.80
2022-11-08T09:20:34.721Z,14.00
2022-11-08T09:25:34.272Z,14.10
2022-11-08T09:30:45.374Z,14.20
2022-11-08T09:35:29.142Z,14.30
2022-11-08T09:40:18.527Z,14.40
2022-11-08T09:45:25.908Z,14.60
2022-11-08T09:51:11.630Z,14.70
2022-11-08T09:56:31.001Z,14.70
2022-11-08T10:01:25.991Z,14.90
2022-11-08T10:07:02.693Z,14.90
2022-11-08T10:12:00.446Z,14.90
2022-11-08T10:17:02.250Z,14.80
2022-11-08T10:22:00.885Z,14.80
2022-11-08T10:27:11.075Z,14.80
2022-11-08T10:32:15.344Z,14.90
2022-11-08T10:37:19.267Z,15.00
2022-11-08T10:42:11.661Z,15.30
2022-11-08T10:47:01.010Z,15.30
2022-11-08T10:51:45.957Z,15.30
2022-11-08T10:56:45.364Z,15.60
2022-11-08T11:01:40.607Z,15.80
2022-11-08T11:06:42.316Z,16.00
2022-11-08T11:11:45.911Z,15.90
2022-11-08T11:16:31.962Z,15.80
2022-11-08T11:21:20.175Z,15.60
2022-11-08T11:26:08.211Z,15.50
2022-11-08T11:31:15.208Z,15.40
2022-11-08T11:36:06.976Z,15.40
2022-11-08T11:41:04.656Z,15.40
2022-11-08T11:45:56.110Z,15.30
2022-11-08T11:50:42.996Z,15.20
2022-11-08T11:55:42.145Z,15.20
2022-11-08T12:00:49.704Z,15.20
2022-11-08T12:06:06.328Z,15.30
2022-11-08T12:11:08.623Z,15.50
2022-11-08T12:16:01.050Z,15.30
2022-11-08T12:20:59.647Z,15.20
2022-11-08T12:25:54.812Z,15.30
2022-11-08T12:30:53.906Z,15.20
2022-11-08T12:36:05.370Z,15.10
2022-11-08T12:41:03.445Z,15.40
2022-11-08T12:46:08.154Z,15.40
2022-11-08T12:51:07.806Z,15.30
2022-11-08T12:56:03.657Z,15.10
2022-11-08T13:00:52.398Z,15.00
2022-11-08T13:05:40.443Z,14.90
2022-11-08T13:10:43.392Z,14.90
2022-11-08T13:15:28.243Z,14.90
2022-11-08T13:20:44.904Z,14.80
2022-11-08T13:25:39.233Z,14.60
2022-11-08T13:30:40.724Z,14.50
2022-11-08T13:35:39.423Z,14.40
2022-11-08T13:41:01.853Z,14.30
2022-11-08T13:45:53.046Z,14.20
2022-11-08T13:50:53.668Z,14.10
2022-11-08T13:55:47.438Z,14.10
2022-11-08T14:00:45.967Z,14.10
2022-11-08T14:05:50.902Z,13.80
2022-11-08T14:10:53.389Z,13.70
2022-11-08T14:15:47.489Z,13.60
2022-11-08T14:20:37.496Z,13.40
2022-11-08T14:25:34.909Z,13.50
2022-11-08T14:30:28.198Z,13.40
2022-11-08T14:35:26.849Z,13.20
2022-11-08T14:40:21.253Z,13.20
2022-11-08T14:45:05.320Z,13.10
2022-11-08T14:49:51.818Z,13.00
2022-11-08T14:54:41.189Z,12.90
2022-11-08T14:59:27.495Z,12.60
2022-11-08T15:04:18.825Z,12.30
2022-11-08T15:09:03.636Z,12.20
2022-11-08T15:13:53.351Z,11.90
2022-11-08T15:18:41.333Z,11.80
2022-11-08T15:23:40.533Z,11.40
2022-11-08T15:28:32.306Z,11.20
2022-11-08T15:33:37.690Z,10.90
2022-11-08T15:38:40.422Z,10.80
2022-11-08T15:43:43.107Z,10.50
2022-11-08T15:48:29.740Z,10.30
2022-11-08T15:53:19.639Z,10.10
2022-11-08T15:58:23.962Z,10.10
2022-11-08T16:03:13.484Z,10.20
2022-11-08T16:08:02.079Z,10.40
2022-11-08T16:12:49.402Z,10.40
2022-11-08T16:17:35.892Z,10.30
2022-11-08T16:22:24.982Z,10.10
2022-11-08T16:27:12.092Z,10.00
2022-11-08T16:32:01.387Z,10.10
2022-11-08T16:36:50.094Z,10.30
2022-11-08T16:41:40.119Z,10.60
2022-11-08T16:46:39.595Z,10.60
2022-11-08T16:51:29.088Z,10.50
2022-11-08T16:56:15.933Z,10.20
2022-11-08T17:01:10.468Z,10.00
2022-11-08T17:06:07.411Z,10.10
2022-11-08T17:10:55.895Z,10.00
2022-11-08T17:15:44.061Z,9.80
2022-11-08T17:20:30.537Z,9.50
2022-11-08T17:25:24.976Z,9.20
2022-11-08T17:30:09.833Z,8.90
2022-11-08T17:34:55.028Z,8.80
2022-11-08T17:39:47.833Z,8.80
2022-11-08T17:44:33.524Z,8.70
2022-11-08T17:49:19.166Z,8.70
2022-11-08T17:54:06.174Z,8.70
2022-11-08T17:58:54.554Z,8.70
2022-11-08T18:03:48.513Z,8.90
2022-11-08T18:08:33.236Z,9.20
2022-11-08T18:13:20.278Z,9.20
2022-11-08T18:18:07.431Z,9.50
2022-11-08T18:22:54.709Z,9.60
2022-11-08T18:27:47.315Z,9.70
2022-11-08T18:32:30.813Z,9.50
2022-11-08T18:37:18.111Z,9.60
2022-11-08T18:42:10.325Z,9.50
2022-11-08T18:46:56.621Z,9.40
2022-11-08T18:51:42.893Z,9.30
2022-11-08T18:56:31.327Z,9.20
2022-11-08T19:01:25.582Z,9.00
2022-11-08T19:06:09.459Z,8.90
2022-11-08T19:10:56.237Z,8.70
2022-11-08T19:15:42.780Z,8.70
2022-11-08T19:20:31.667Z,9.10
2022-11-08T19:25:19.156Z,9.50
2022-11-08T19:30:07.025Z,9.80
2022-11-08T19:34:52.653Z,9.90
2022-11-08T19:39:44.778Z,9.90
2022-11-08T19:44:31.905Z,9.70
2022-11-08T19:49:25.385Z,9.80
2022-11-08T19:54:13.186Z,9.80
2022-11-08T19:58:58.734Z,9.70
2022-11-08T20:03:42.319Z,9.60
2022-11-08T20:08:32.569Z,9.40
2022-11-08T20:13:19.262Z,9.20
2022-11-08T20:18:10.523Z,9.10
2022-11-08T20:22:54.432Z,9.10
2022-11-08T20:27:47.583Z,9.00
2022-11-08T20:32:35.196Z,8.90
2022-11-08T20:37:20.348Z,8.90
2022-11-08T20:42:07.466Z,9.10
2022-11-08T20:47:13.567Z,9.20
2022-11-08T20:52:02.406Z,9.40
2022-11-08T20:56:48.158Z,9.40
2022-11-08T21:01:34.591Z,9.60
2022-11-08T21:06:39.309Z,9.60
2022-11-08T21:11:29.909Z,9.50
2022-11-08T21:16:29.901Z,9.40
2022-11-08T21:21:22.470Z,9.30
2022-11-08T21:26:07.591Z,9.30
2022-11-08T21:31:00.326Z,9.50
2022-11-08T21:35:45.349Z,9.80
2022-11-08T21:40:34.333Z,10.00
2022-11-08T21:45:23.095Z,10.20
2022-11-08T21:50:09.308Z,10.40
2022-11-08T21:54:57.261Z,10.60
2022-11-08T21:59:46.104Z,10.70
2022-11-08T22:04:32.968Z,10.70
2022-11-08T22:09:20.871Z,10.60
2022-11-08T22:14:09.207Z,10.50
2022-11-08T22:19:28.951Z,10.40
2022-11-08T22:24:21.783Z,10.20
2022-11-08T22:29:25.495Z,10.00
2022-11-08T22:34:10.127Z,9.90
2022-11-08T22:38:56.890Z,9.80
2022-11-08T22:43:46.761Z,9.70
2022-11-08T22:48:34.864Z,9.60
2022-11-08T22:53:21.767Z,9.50
2022-11-08T22:58:07.047Z,9.40
2022-11-08T23:02:56.364Z,9.30
2022-11-08T23:07:46.024Z,9.30
2022-11-08T23:13:04.191Z,9.20
2022-11-08T23:17:57.915Z,9.30
2022-11-08T23:23:00.336Z,9.20
2022-11-08T23:28:02.812Z,9.30
2022-11-08T23:32:52.062Z,9.30
2022-11-08T23:37:43.463Z,9.20
2022-11-08T23:42:51.108Z,9.20
2022-11-08T23:47:45.496Z,9.20
2022-11-08T23:52:36.366Z,9.20
2022-11-08T23:57:41.739Z,9.20
